createdAt,value
2022-11-28T00:01:57.719Z,27.30
2022-11-28T00:04:30.585Z,27.85
2022-11-28T00:07:38.456Z,29.85
2022-11-28T00:10:07.993Z,26.52
2022-11-28T00:12:36.303Z,24.30
2022-11-28T00:15:05.421Z,33.92
2022-11-28T00:17:34.976Z,30.80
2022-11-28T00:20:02.789Z,28.27
2022-11-28T00:22:30.909Z,37.83
2022-11-28T00:24:58.747Z,31.25
2022-11-28T00:27:26.451Z,33.88
2022-11-28T00:29:55.223Z,27.00
2022-11-28T00:32:22.849Z,32.38
2022-11-28T00:34:50.710Z,27.13
2022-11-28T00:37:20.787Z,31.88
2022-11-28T00:39:51.824Z,27.10
2022-11-28T00:42:22.520Z,32.10
2022-11-28T00:44:52.475Z,24.92
2022-11-28T00:47:23.877Z,34.15
2022-11-28T00:49:51.685Z,26.35
2022-11-28T00:52:40.031Z,27.70
2022-11-28T00:55:08.066Z,30.42
2022-11-28T00:57:35.893Z,26.27
2022-11-28T01:00:08.197Z,31.65
2022-11-28T01:02:36.512Z,22.55
2022-11-28T01:05:04.849Z,24.55
2022-11-28T01:07:45.584Z,25.90
2022-11-28T01:10:22.735Z,29.45
2022-11-28T01:12:58.126Z,32.28
2022-11-28T01:15:28.769Z,23.95
2022-11-28T01:18:00.067Z,24.08
2022-11-28T01:20:30.498Z,30.08
2022-11-28T01:22:58.080Z,26.15
2022-11-28T01:25:29.858Z,36.25
2022-11-28T01:27:59.817Z,25.05
2022-11-28T01:30:27.565Z,29.75
2022-11-28T01:32:56.417Z,25.88
2022-11-28T01:35:24.096Z,30.83
2022-11-28T01:37:51.602Z,25.55
2022-11-28T01:40:21.746Z,24.00
2022-11-28T01:42:49.581Z,26.60
2022-11-28T01:45:23.655Z,27.52
2022-11-28T01:47:51.949Z,22.50
2022-11-28T01:50:22.888Z,24.35
2022-11-28T01:52:55.737Z,25.48
2022-11-28T01:55:26.800Z,29.70
2022-11-28T01:57:54.603Z,22.15
2022-11-28T02:00:25.304Z,26.63
2022-11-28T02:03:03.991Z,26.52
2022-11-28T02:05:31.483Z,29.15
2022-11-28T02:07:59.397Z,26.67
2022-11-28T02:10:41.300Z,27.60
2022-11-28T02:13:33.538Z,28.13
2022-11-28T02:16:14.692Z,33.80
2022-11-28T02:21:38.430Z,23.42
2022-11-28T02:24:27.326Z,27.27
2022-11-28T02:27:13.848Z,29.77
2022-11-28T02:29:53.612Z,33.72
2022-11-28T02:32:44.744Z,33.20
2022-11-28T02:35:12.289Z,36.60
2022-11-28T02:38:08.306Z,41.35
2022-11-28T02:40:55.430Z,31.58
2022-11-28T02:43:32.688Z,36.58
2022-11-28T02:46:05.571Z,26.45
2022-11-28T02:48:51.559Z,30.60
2022-11-28T02:51:25.011Z,35.67
2022-11-28T02:53:52.670Z,30.88
2022-11-28T02:56:26.574Z,31.70
2022-11-28T03:01:37.134Z,28.08
2022-11-28T03:04:19.275Z,29.08
2022-11-28T03:06:55.638Z,33.83
2022-11-28T03:09:45.562Z,34.88
2022-11-28T03:12:27.369Z,32.50
2022-11-28T03:14:56.592Z,35.83
2022-11-28T03:18:07.669Z,36.65
2022-11-28T03:20:36.429Z,30.63
2022-11-28T03:23:23.064Z,38.95
2022-11-28T03:26:15.684Z,33.47
2022-11-28T03:28:50.507Z,36.67
2022-11-28T03:31:45.790Z,30.85
2022-11-28T03:34:18.416Z,32.70
2022-11-28T03:36:49.890Z,36.60
2022-11-28T03:39:22.172Z,36.33
2022-11-28T03:42:13.485Z,29.30
2022-11-28T03:45:02.935Z,31.92
2022-11-28T03:47:37.532Z,27.30
2022-11-28T03:50:07.398Z,36.35
2022-11-28T03:52:39.518Z,32.55
2022-11-28T03:55:44.063Z,28.80
2022-11-28T03:58:25.015Z,30.63
2022-11-28T04:01:21.796Z,36.05
2022-11-28T04:03:55.204Z,30.33
2022-11-28T04:06:28.101Z,27.77
2022-11-28T04:09:02.516Z,32.47
2022-11-28T04:11:37.682Z,25.90
2022-11-28T04:14:20.258Z,31.05
2022-11-28T04:16:55.341Z,29.33
2022-11-28T04:19:37.174Z,31.05
2022-11-28T04:22:12.082Z,32.40
2022-11-28T04:24:56.293Z,21.73
2022-11-28T04:27:30.078Z,24.08
2022-11-28T04:29:59.241Z,22.83
2022-11-28T04:32:26.784Z,20.52
2022-11-28T04:34:57.276Z,17.27
2022-11-28T04:37:30.746Z,16.52
2022-11-28T04:40:00.872Z,16.90
2022-11-28T04:42:37.969Z,14.20
2022-11-28T04:45:12.971Z,14.65
2022-11-28T04:47:43.418Z,12.88
2022-11-28T04:50:16.380Z,13.68
2022-11-28T04:53:00.896Z,13.13
2022-11-28T04:55:49.496Z,10.48
2022-11-28T04:58:23.332Z,12.32
2022-11-28T05:00:51.482Z,13.63
2022-11-28T05:03:19.113Z,13.27
2022-11-28T05:05:50.636Z,13.30
2022-11-28T05:08:20.839Z,24.05
2022-11-28T05:10:48.511Z,16.70
2022-11-28T05:13:16.675Z,12.07
2022-11-28T05:15:47.478Z,10.90
2022-11-28T05:20:47.249Z,9.13
2022-11-28T05:23:14.786Z,14.07
2022-11-28T05:25:42.660Z,10.52
2022-11-28T05:28:12.674Z,9.90
2022-11-28T05:33:12.723Z,11.38
2022-11-28T05:35:40.266Z,12.10
2022-11-28T05:38:13.303Z,15.43
2022-11-28T05:40:44.560Z,14.80
2022-11-28T05:43:15.394Z,15.63
2022-11-28T05:45:43.888Z,14.05
2022-11-28T05:48:12.054Z,15.32
2022-11-28T05:50:40.738Z,15.48
2022-11-28T05:53:15.616Z,11.02
2022-11-28T05:55:43.389Z,10.45
2022-11-28T05:58:10.831Z,10.85
2022-11-28T06:00:38.464Z,10.15
2022-11-28T06:03:09.154Z,10.65
2022-11-28T06:05:43.861Z,8.48
2022-11-28T06:08:12.067Z,10.25
2022-11-28T06:10:39.939Z,10.40
2022-11-28T06:13:07.667Z,12.77
2022-11-28T06:15:42.935Z,19.35
2022-11-28T06:18:14.089Z,36.03
2022-11-28T06:20:45.204Z,48.58
2022-11-28T06:23:12.983Z,26.75
2022-11-28T06:25:40.764Z,33.78
2022-11-28T06:30:45.279Z,26.15
2022-11-28T06:33:13.432Z,17.52
2022-11-28T06:35:41.094Z,11.57
2022-11-28T06:38:13.965Z,6.80
2022-11-28T06:40:41.788Z,17.15
2022-11-28T06:43:12.521Z,15.88
2022-11-28T06:45:40.155Z,14.73
2022-11-28T06:48:07.724Z,12.48
2022-11-28T06:50:37.002Z,10.35
2022-11-28T06:53:04.743Z,13.02
2022-11-28T06:55:32.507Z,13.68
2022-11-28T06:58:03.706Z,16.55
2022-11-28T07:00:34.453Z,16.50
2022-11-28T07:03:01.977Z,21.88
2022-11-28T07:05:33.963Z,38.03
2022-11-28T07:08:01.681Z,23.35
2022-11-28T07:10:31.847Z,30.15
2022-11-28T07:13:05.059Z,50.25
2022-11-28T07:15:38.240Z,26.65
2022-11-28T07:18:06.022Z,29.75
2022-11-28T07:20:49.565Z,21.42
2022-11-28T07:23:16.829Z,16.98
2022-11-28T07:25:44.080Z,22.65
2022-11-28T07:28:11.349Z,14.43
2022-11-28T07:30:38.556Z,16.35
2022-11-28T07:33:05.733Z,28.75
2022-11-28T07:35:34.580Z,21.80
2022-11-28T07:38:01.841Z,22.08
2022-11-28T07:40:29.157Z,20.20
2022-11-28T07:42:56.448Z,17.25
2022-11-28T07:45:32.951Z,23.08
2022-11-28T07:48:11.137Z,30.65
2022-11-28T07:50:39.376Z,22.05
2022-11-28T07:53:07.409Z,30.55
2022-11-28T07:55:36.234Z,35.85
2022-11-28T07:58:03.875Z,26.05
2022-11-28T08:00:31.783Z,26.77
2022-11-28T08:02:59.349Z,20.15
2022-11-28T08:05:26.582Z,18.42
2022-11-28T08:07:54.138Z,17.58
2022-11-28T08:10:21.442Z,30.75
2022-11-28T08:13:08.468Z,23.45
2022-11-28T08:15:39.457Z,17.80
2022-11-28T08:18:07.411Z,21.42
2022-11-28T08:20:34.732Z,22.67
2022-11-28T08:23:02.050Z,29.95
2022-11-28T08:25:29.291Z,22.23
2022-11-28T08:27:56.571Z,32.13
2022-11-28T08:30:23.977Z,27.80
2022-11-28T08:32:51.445Z,28.50
2022-11-28T08:35:18.809Z,29.42
2022-11-28T08:37:46.039Z,34.05
2022-11-28T08:40:14.203Z,30.25
2022-11-28T08:42:41.907Z,30.70
2022-11-28T08:45:10.667Z,35.25
2022-11-28T08:47:38.273Z,28.73
2022-11-28T08:50:06.326Z,38.70
2022-11-28T08:52:33.592Z,31.02
2022-11-28T08:55:00.888Z,32.78
2022-11-28T08:57:28.134Z,31.73
2022-11-28T08:59:55.369Z,25.10
2022-11-28T09:02:25.935Z,32.17
2022-11-28T09:07:21.267Z,34.42
2022-11-28T09:09:49.099Z,36.78
2022-11-28T09:12:16.802Z,26.23
2022-11-28T09:14:45.930Z,28.05
2022-11-28T09:17:13.476Z,33.35
2022-11-28T09:19:41.030Z,37.45
2022-11-28T09:22:08.558Z,32.42
2022-11-28T09:24:35.778Z,32.30
2022-11-28T09:27:03.006Z,36.30
2022-11-28T09:29:30.976Z,29.98
2022-11-28T09:31:58.218Z,35.92
2022-11-28T09:34:25.635Z,36.00
2022-11-28T09:36:53.033Z,23.40
2022-11-28T09:39:20.453Z,29.33
2022-11-28T09:42:00.254Z,24.00
2022-11-28T09:44:51.893Z,21.88
2022-11-28T09:47:27.274Z,21.08
2022-11-28T09:50:03.660Z,24.80
2022-11-28T09:53:13.124Z,24.63
2022-11-28T09:55:44.746Z,19.23
2022-11-28T09:58:31.194Z,18.98
2022-11-28T10:01:25.407Z,19.85
2022-11-28T10:03:57.851Z,15.45
2022-11-28T10:06:45.853Z,21.15
2022-11-28T10:09:25.693Z,20.02
2022-11-28T10:12:04.985Z,20.15
2022-11-28T10:14:44.016Z,17.67
2022-11-28T10:17:23.068Z,18.08
2022-11-28T10:19:55.322Z,22.10
2022-11-28T10:22:39.892Z,19.08
2022-11-28T10:25:19.450Z,17.35
2022-11-28T10:27:47.063Z,14.77
2022-11-28T10:30:30.954Z,23.23
2022-11-28T10:33:12.364Z,18.13
2022-11-28T10:35:44.123Z,18.70
2022-11-28T10:38:15.269Z,16.80
2022-11-28T10:43:18.709Z,18.35
2022-11-28T10:45:48.958Z,14.82
2022-11-28T10:48:38.964Z,17.27
2022-11-28T10:51:40.309Z,13.52
2022-11-28T10:54:30.564Z,20.00
2022-11-28T10:57:03.635Z,15.43
2022-11-28T11:00:02.989Z,16.50
2022-11-28T11:02:40.176Z,23.45
2022-11-28T11:05:11.909Z,34.17
2022-11-28T11:07:39.347Z,25.10
2022-11-28T11:10:17.343Z,32.92
2022-11-28T11:12:44.710Z,28.58
2022-11-28T11:15:33.590Z,33.13
2022-11-28T11:18:21.966Z,32.30
2022-11-28T11:20:49.188Z,31.35
2022-11-28T11:23:18.267Z,33.83
2022-11-28T11:25:56.494Z,30.23
2022-11-28T11:28:46.337Z,41.08
2022-11-28T11:31:23.528Z,36.05
2022-11-28T11:33:53.270Z,31.50
2022-11-28T11:36:31.863Z,38.08
2022-11-28T11:39:25.760Z,32.10
2022-11-28T11:42:10.427Z,33.35
2022-11-28T11:44:37.777Z,39.70
2022-11-28T11:47:07.041Z,33.70
2022-11-28T11:49:50.140Z,30.33
2022-11-28T11:52:18.603Z,31.95
2022-11-28T11:55:01.142Z,30.88
2022-11-28T11:57:39.400Z,33.15
2022-11-28T12:00:09.717Z,32.75
2022-11-28T12:02:47.927Z,31.65
2022-11-28T12:05:20.537Z,29.67
2022-11-28T12:07:58.716Z,34.55
2022-11-28T12:10:50.621Z,33.53
2022-11-28T12:13:22.335Z,34.78
2022-11-28T12:15:58.635Z,31.10
2022-11-28T12:18:35.473Z,38.85
2022-11-28T12:21:23.858Z,40.83
2022-11-28T12:24:10.437Z,37.63
2022-11-28T12:27:08.419Z,34.17
2022-11-28T12:30:02.542Z,36.63
2022-11-28T12:32:53.856Z,30.15
2022-11-28T12:35:39.956Z,35.80
2022-11-28T12:38:22.429Z,32.50
2022-11-28T12:40:49.670Z,41.80
2022-11-28T12:43:35.084Z,31.45
2022-11-28T12:46:02.325Z,34.58
2022-11-28T12:48:32.325Z,43.75
2022-11-28T12:51:03.308Z,35.28
2022-11-28T12:53:36.998Z,35.47
2022-11-28T12:56:19.592Z,34.60
2022-11-28T12:58:51.461Z,39.70
2022-11-28T13:01:37.565Z,36.80
2022-11-28T13:04:09.693Z,41.92
2022-11-28T13:06:40.641Z,37.33
2022-11-28T13:09:17.181Z,38.95
2022-11-28T13:12:26.286Z,42.33
2022-11-28T13:14:55.464Z,38.45
2022-11-28T13:17:25.944Z,30.95
2022-11-28T13:20:03.909Z,43.10
2022-11-28T13:22:39.483Z,33.88
2022-11-28T13:25:19.167Z,32.42
2022-11-28T13:28:08.452Z,38.40
2022-11-28T13:30:48.401Z,47.33
2022-11-28T13:33:27.909Z,40.25
2022-11-28T13:35:55.138Z,36.05
2022-11-28T13:38:51.957Z,50.20
2022-11-28T13:42:03.439Z,45.13
2022-11-28T13:44:22.190Z,39.22
2022-11-28T13:46:51.448Z,43.78
2022-11-28T13:49:20.976Z,47.70
2022-11-28T13:51:48.699Z,60.15
2022-11-28T13:54:19.830Z,42.25
2022-11-28T13:57:03.520Z,50.75
2022-11-28T13:59:31.219Z,38.60
2022-11-28T14:02:00.892Z,58.15
2022-11-28T14:04:28.238Z,43.70
2022-11-28T14:07:04.611Z,35.55
2022-11-28T14:09:54.634Z,38.13
2022-11-28T14:13:06.535Z,34.58
2022-11-28T14:16:02.774Z,40.15
2022-11-28T14:21:29.781Z,36.33
2022-11-28T14:24:05.743Z,28.40
2022-11-28T14:26:37.313Z,32.75
2022-11-28T14:29:05.897Z,32.83
2022-11-28T14:31:39.749Z,28.67
2022-11-28T14:34:50.498Z,30.25
2022-11-28T14:37:21.388Z,29.98
2022-11-28T14:39:49.486Z,32.80
2022-11-28T14:42:36.726Z,30.10
2022-11-28T14:45:26.432Z,32.05
2022-11-28T14:48:18.660Z,35.90
2022-11-28T14:50:47.679Z,40.10
2022-11-28T14:53:50.399Z,39.33
2022-11-28T14:56:24.545Z,33.92
2022-11-28T14:58:55.174Z,32.25
2022-11-28T15:01:48.422Z,25.52
2022-11-28T15:04:40.430Z,28.48
2022-11-28T15:07:26.555Z,27.77
2022-11-28T15:10:18.181Z,27.42
2022-11-28T15:13:08.537Z,33.85
2022-11-28T15:15:35.811Z,33.92
2022-11-28T15:18:03.192Z,33.20
2022-11-28T15:20:40.878Z,29.65
2022-11-28T15:23:33.934Z,29.33
2022-11-28T15:26:02.050Z,33.20
2022-11-28T15:28:32.251Z,37.47
2022-11-28T15:31:01.091Z,26.92
2022-11-28T15:33:28.374Z,31.92
2022-11-28T15:36:16.195Z,40.28
2022-11-28T15:38:43.444Z,28.70
2022-11-28T15:41:10.700Z,31.73
2022-11-28T15:43:38.266Z,37.53
2022-11-28T15:46:08.067Z,36.67
2022-11-28T15:48:47.107Z,34.67
2022-11-28T15:51:34.333Z,33.10
2022-11-28T15:54:03.416Z,28.67
2022-11-28T15:56:30.852Z,32.22
2022-11-28T15:58:58.110Z,30.92
2022-11-28T16:01:26.648Z,27.33
2022-11-28T16:04:05.678Z,34.15
2022-11-28T16:06:35.152Z,29.02
2022-11-28T16:09:06.375Z,24.42
2022-11-28T16:11:34.884Z,25.80
2022-11-28T16:14:07.353Z,30.77
2022-11-28T16:16:35.656Z,35.95
2022-11-28T16:19:07.254Z,22.67
2022-11-28T16:21:40.659Z,28.67
2022-11-28T16:24:40.468Z,24.92
2022-11-28T16:27:34.069Z,23.92
2022-11-28T16:30:25.020Z,24.83
2022-11-28T16:32:53.519Z,23.58
2022-11-28T16:35:28.527Z,27.48
2022-11-28T16:38:15.432Z,26.83
2022-11-28T16:40:42.770Z,22.52
2022-11-28T16:43:30.785Z,22.25
2022-11-28T16:45:59.367Z,26.05
2022-11-28T16:48:28.818Z,24.67
2022-11-28T16:51:02.576Z,18.58
2022-11-28T16:53:59.643Z,23.15
2022-11-28T16:56:30.043Z,25.10
2022-11-28T16:59:17.456Z,25.05
2022-11-28T17:01:46.598Z,23.80
2022-11-28T17:04:24.354Z,21.75
2022-11-28T17:06:53.006Z,47.22
2022-11-28T17:09:20.331Z,25.50
2022-11-28T17:11:57.983Z,34.33
2022-11-28T17:14:25.304Z,55.45
2022-11-28T17:16:52.807Z,34.92
2022-11-28T17:19:20.109Z,22.90
2022-11-28T17:21:50.612Z,21.50
2022-11-28T17:24:25.718Z,23.83
2022-11-28T17:26:53.520Z,20.17
2022-11-28T17:29:21.099Z,19.30
2022-11-28T17:31:48.840Z,27.27
2022-11-28T17:34:35.010Z,19.20
2022-11-28T17:37:05.149Z,14.27
2022-11-28T17:39:32.755Z,20.40
2022-11-28T17:42:00.084Z,24.55
2022-11-28T17:44:31.936Z,27.60
2022-11-28T17:47:00.516Z,29.15
2022-11-28T17:49:27.841Z,26.83
2022-11-28T17:51:55.439Z,19.20
2022-11-28T17:54:23.565Z,19.17
2022-11-28T17:56:51.731Z,27.27
2022-11-28T17:59:20.763Z,22.42
2022-11-28T18:01:48.083Z,24.45
2022-11-28T18:04:15.451Z,24.35
2022-11-28T18:06:44.487Z,20.02
2022-11-28T18:09:12.485Z,15.68
2022-11-28T18:11:40.971Z,23.73
2022-11-28T18:14:08.376Z,14.68
2022-11-28T18:16:36.257Z,21.00
2022-11-28T18:19:04.070Z,18.38
2022-11-28T18:21:32.355Z,22.20
2022-11-28T18:23:59.612Z,15.90
2022-11-28T18:26:27.075Z,18.35
2022-11-28T18:28:54.465Z,18.08
2022-11-28T18:31:23.398Z,24.80
2022-11-28T18:33:51.172Z,18.83
2022-11-28T18:36:22.894Z,21.90
2022-11-28T18:38:53.706Z,21.48
2022-11-28T18:41:20.937Z,18.17
2022-11-28T18:43:48.241Z,20.85
2022-11-28T18:46:17.161Z,17.95
2022-11-28T18:48:45.748Z,16.02
2022-11-28T18:51:13.925Z,16.33
2022-11-28T18:53:41.415Z,18.30
2022-11-28T18:56:08.752Z,16.65
2022-11-28T18:58:40.648Z,21.92
2022-11-28T19:01:11.759Z,15.82
2022-11-28T19:03:39.146Z,12.55
2022-11-28T19:06:11.373Z,21.65
2022-11-28T19:08:38.904Z,17.33
2022-11-28T19:11:10.112Z,17.05
2022-11-28T19:13:38.089Z,13.88
2022-11-28T19:16:06.635Z,17.17
2022-11-28T19:18:34.466Z,23.45
2022-11-28T19:21:05.204Z,20.85
2022-11-28T19:23:32.843Z,22.63
2022-11-28T19:26:10.413Z,19.50
2022-11-28T19:28:38.313Z,18.27
2022-11-28T19:31:09.158Z,19.50
2022-11-28T19:33:36.422Z,18.38
2022-11-28T19:36:04.674Z,20.48
2022-11-28T19:38:33.606Z,20.88
2022-11-28T19:41:07.246Z,17.52
2022-11-28T19:43:34.964Z,21.08
2022-11-28T19:46:03.020Z,12.70
2022-11-28T19:48:30.833Z,14.80
2022-11-28T19:50:58.036Z,13.85
2022-11-28T19:53:25.799Z,22.23
2022-11-28T19:55:54.233Z,20.25
2022-11-28T19:58:21.706Z,21.40
2022-11-28T20:00:49.312Z,15.02
2022-11-28T20:03:16.558Z,19.25
2022-11-28T20:05:43.801Z,12.35
2022-11-28T20:08:11.086Z,19.10
2022-11-28T20:10:38.875Z,15.25
2022-11-28T20:13:06.417Z,18.08
2022-11-28T20:15:36.883Z,11.85
2022-11-28T20:18:04.457Z,12.52
2022-11-28T20:20:33.299Z,17.92
2022-11-28T20:23:01.263Z,14.25
2022-11-28T20:25:28.599Z,13.57
2022-11-28T20:27:55.809Z,15.35
2022-11-28T20:30:23.375Z,20.48
2022-11-28T20:32:50.679Z,12.35
2022-11-28T20:35:19.155Z,13.70
2022-11-28T20:37:46.469Z,13.77
2022-11-28T20:40:14.586Z,19.92
2022-11-28T20:42:41.912Z,15.15
2022-11-28T20:45:09.479Z,27.55
2022-11-28T20:47:38.111Z,17.92
2022-11-28T20:50:07.254Z,13.25
2022-11-28T20:52:34.618Z,17.60
2022-11-28T20:55:02.296Z,13.05
2022-11-28T20:57:29.663Z,15.30
2022-11-28T20:59:57.508Z,13.57
2022-11-28T21:02:24.793Z,12.02
2022-11-28T21:04:52.241Z,13.55
2022-11-28T21:07:19.710Z,12.35
2022-11-28T21:09:47.219Z,9.90
2022-11-28T21:12:20.807Z,17.70
2022-11-28T21:14:48.622Z,11.40
2022-11-28T21:17:16.135Z,13.40
2022-11-28T21:19:43.612Z,14.18
2022-11-28T21:22:11.042Z,11.68
2022-11-28T21:24:38.307Z,17.65
2022-11-28T21:27:05.564Z,16.50
2022-11-28T21:29:33.379Z,16.40
2022-11-28T21:32:01.003Z,14.75
2022-11-28T21:34:28.388Z,13.27
2022-11-28T21:36:55.586Z,18.33
2022-11-28T21:39:23.019Z,19.23
2022-11-28T21:41:51.151Z,12.05
2022-11-28T21:44:18.877Z,12.82
2022-11-28T21:46:46.261Z,12.02
2022-11-28T21:49:13.552Z,16.63
2022-11-28T21:51:40.886Z,17.55
2022-11-28T21:54:09.955Z,13.48
2022-11-28T21:56:37.311Z,16.42
2022-11-28T21:59:04.620Z,17.88
2022-11-28T22:01:32.388Z,16.98
2022-11-28T22:04:02.864Z,12.52
2022-11-28T22:06:30.683Z,17.05
2022-11-28T22:08:57.918Z,13.23
2022-11-28T22:11:25.302Z,12.77
2022-11-28T22:13:53.039Z,15.73
2022-11-28T22:16:22.369Z,13.55
2022-11-28T22:18:51.077Z,14.07
2022-11-28T22:24:06.714Z,13.65
2022-11-28T22:26:34.040Z,15.10
2022-11-28T22:29:01.469Z,12.63
2022-11-28T22:31:29.171Z,11.20
2022-11-28T22:33:56.505Z,13.77
2022-11-28T22:36:23.906Z,12.77
2022-11-28T22:38:55.223Z,11.18
2022-11-28T22:43:59.063Z,8.13
2022-11-28T22:46:26.403Z,11.50
2022-11-28T22:48:53.603Z,12.38
2022-11-28T22:51:25.130Z,12.90
2022-11-28T22:53:59.734Z,14.20
2022-11-28T22:56:27.163Z,8.23
2022-11-28T22:58:54.464Z,11.90
2022-11-28T23:01:26.633Z,11.00
2022-11-28T23:03:54.204Z,12.50
2022-11-28T23:06:24.554Z,16.10
2022-11-28T23:08:51.856Z,8.70
2022-11-28T23:11:21.133Z,11.88
2022-11-28T23:13:49.211Z,11.52
2022-11-28T23:16:27.054Z,11.93
2022-11-28T23:18:55.624Z,12.57
2022-11-28T23:21:23.246Z,11.75
2022-11-28T23:23:50.463Z,14.02
2022-11-28T23:26:22.413Z,12.40
2022-11-28T23:28:49.941Z,13.57
2022-11-28T23:31:21.838Z,14.68
2022-11-28T23:33:49.253Z,18.70
2022-11-28T23:36:20.778Z,10.70
2022-11-28T23:38:49.132Z,13.43
2022-11-28T23:41:16.403Z,13.27
2022-11-28T23:43:43.783Z,14.63
2022-11-28T23:46:11.361Z,12.93
2022-11-28T23:48:38.631Z,13.65
2022-11-28T23:51:06.379Z,19.23
2022-11-28T23:53:34.711Z,14.60
2022-11-28T23:56:03.874Z,13.65
2022-11-28T23:58:31.284Z,13.75
